Time;durP1;ratioP1;P1;durP2;ratioP2;P2;SDS_P1;SDS_P2;PMS_P1;PMS_P2;Temp;Humidity;BMP_temperature;BMP_pressure;BME280_temperature;BME280_humidity;BME280_pressure;Samples;Min_cycle;Max_cycle;Signal;HPM_P1;HPM_P2
2022/05/05 00:01:35;;;;;;;2.00;2.00;;;;;;;14.17;100.00;99741.13;5109014;28;20212;-68
2022/05/05 00:04:03;;;;;;;2.60;2.50;;;;;;;14.11;100.00;99743.94;5111990;28;20226;-69
2022/05/05 00:06:30;;;;;;;2.00;1.90;;;;;;;14.02;100.00;99748.63;5108896;28;20273;-68
2022/05/05 00:08:59;;;;;;;2.40;2.30;;;;;;;13.95;100.00;99747.16;5110115;28;20199;-69
2022/05/05 00:14:27;;;;;;;1.80;1.70;;;;;;;13.87;100.00;99746.59;5111936;28;20206;-69
2022/05/05 00:16:57;;;;;;;2.20;2.10;;;;;;;13.71;100.00;99743.75;5112382;28;20198;-68
2022/05/05 00:19:24;;;;;;;2.10;2.00;;;;;;;13.51;100.00;99741.06;5112078;28;20195;-69
2022/05/05 00:21:51;;;;;;;2.20;2.10;;;;;;;13.32;100.00;99722.03;5108469;28;20774;-68
2022/05/05 00:24:19;;;;;;;2.80;2.70;;;;;;;13.37;100.00;99751.91;5107952;28;20298;-68
2022/05/05 00:26:47;;;;;;;2.33;2.23;;;;;;;13.36;100.00;99747.63;5112279;28;20641;-68
2022/05/05 00:29:14;;;;;;;2.40;2.30;;;;;;;13.37;100.00;99754.47;5109885;28;20194;-69
2022/05/05 00:31:41;;;;;;;2.90;1.70;;;;;;;13.38;100.00;99751.00;5111148;28;20190;-68
2022/05/05 00:34:08;;;;;;;2.37;2.27;;;;;;;13.38;100.00;99743.25;5111382;28;20198;-68
2022/05/05 00:36:35;;;;;;;2.10;2.00;;;;;;;13.40;100.00;99738.06;5108529;28;20623;-68
2022/05/05 00:39:02;;;;;;;2.17;2.07;;;;;;;13.45;100.00;99737.00;5109364;28;20198;-68
2022/05/05 00:41:34;;;;;;;2.23;2.13;;;;;;;13.47;100.00;99745.50;5111640;28;20702;-68
2022/05/05 00:44:03;;;;;;;2.10;2.00;;;;;;;13.45;100.00;99752.44;5111331;28;20256;-68
2022/05/05 00:46:31;;;;;;;2.00;1.90;;;;;;;13.35;100.00;99734.81;5108625;28;20676;-69
2022/05/05 00:48:58;;;;;;;2.30;2.20;;;;;;;13.45;100.00;99747.31;5110908;28;20294;-69
2022/05/05 00:51:25;;;;;;;2.93;2.80;;;;;;;13.46;100.00;99758.44;5111572;28;20734;-68
2022/05/05 00:53:54;;;;;;;2.10;2.00;;;;;;;13.45;100.00;99747.31;5112101;28;20606;-68
2022/05/05 00:56:22;;;;;;;2.40;2.30;;;;;;;13.43;100.00;99758.56;5110493;28;20709;-70
2022/05/05 00:58:53;;;;;;;2.20;2.10;;;;;;;13.37;100.00;99751.06;5111194;28;20282;-69
2022/05/05 01:01:22;;;;;;;2.93;2.83;;;;;;;13.36;100.00;99757.09;5110709;28;21062;-69
2022/05/05 01:03:50;;;;;;;2.10;2.00;;;;;;;13.35;100.00;99750.25;5111532;28;20722;-68
2022/05/05 01:06:17;;;;;;;2.40;2.30;;;;;;;13.35;100.00;99760.56;5108520;27;20213;-68
2022/05/05 01:08:45;;;;;;;2.63;2.43;;;;;;;13.31;100.00;99748.72;5110075;28;20217;-68
2022/05/05 01:11:12;;;;;;;2.27;2.17;;;;;;;13.15;100.00;99732.94;5108020;28;20230;-68
2022/05/05 01:13:41;;;;;;;2.80;2.70;;;;;;;13.25;100.00;99748.94;5112162;28;20274;-68
2022/05/05 01:16:10;;;;;;;2.80;2.70;;;;;;;13.22;100.00;99754.16;5110889;28;20198;-68
2022/05/05 01:18:38;;;;;;;2.07;1.97;;;;;;;13.15;100.00;99754.38;5111185;28;20293;-68
2022/05/05 01:21:05;;;;;;;2.17;2.07;;;;;;;13.11;100.00;99755.41;5110169;28;20230;-68
2022/05/05 01:23:34;;;;;;;2.43;2.33;;;;;;;13.06;100.00;99756.41;5111852;28;20662;-68
2022/05/05 01:28:47;;;;;;;2.13;2.03;;;;;;;12.99;100.00;99772.94;5110195;28;20202;-68
2022/05/05 01:31:14;;;;;;;1.73;1.73;;;;;;;12.81;100.00;99746.09;5107589;28;20746;-68
2022/05/05 01:33:41;;;;;;;5.97;2.23;;;;;;;12.86;100.00;99761.41;5110121;28;20570;-68
2022/05/05 01:36:08;;;;;;;2.23;2.13;;;;;;;12.76;100.00;99766.03;5108521;28;20209;-68
2022/05/05 01:38:40;;;;;;;2.50;2.40;;;;;;;12.61;100.00;99746.78;5109488;28;20198;-68
2022/05/05 01:41:09;;;;;;;2.80;2.07;;;;;;;12.65;100.00;99762.94;5107430;28;20255;-68
2022/05/05 01:43:37;;;;;;;2.40;2.30;;;;;;;12.61;100.00;99763.94;5110699;28;20338;-68
2022/05/05 01:46:05;;;;;;;2.87;2.57;;;;;;;12.53;100.00;99760.78;5110104;28;20238;-69
2022/05/05 01:48:33;;;;;;;2.20;2.10;;;;;;;12.45;100.00;99750.72;5109437;28;20198;-68
2022/05/05 01:51:00;;;;;;;2.70;2.60;;;;;;;12.43;100.00;99770.53;5111005;28;20277;-68
2022/05/05 01:53:27;;;;;;;2.30;2.20;;;;;;;12.40;100.00;99768.03;5109195;28;20286;-68
2022/05/05 01:55:55;;;;;;;2.60;2.50;;;;;;;12.41;100.00;99769.72;5109556;28;20198;-68
2022/05/05 01:58:23;;;;;;;2.50;2.40;;;;;;;12.43;100.00;99773.09;5110711;28;20730;-68
2022/05/05 02:00:49;;;;;;;2.77;2.60;;;;;;;12.44;100.00;99773.94;5110732;28;20201;-68
2022/05/05 02:03:16;;;;;;;2.47;2.30;;;;;;;12.43;100.00;99772.25;5109080;28;20215;-68
2022/05/05 02:05:44;;;;;;;2.50;2.40;;;;;;;12.42;100.00;99781.69;5110493;28;20575;-68
2022/05/05 02:08:12;;;;;;;2.47;2.37;;;;;;;12.44;100.00;99779.88;5109779;28;20285;-68
2022/05/05 02:10:39;;;;;;;2.20;2.10;;;;;;;12.44;100.00;99785.03;5109901;28;20289;-68
2022/05/05 02:13:09;;;;;;;2.80;2.57;;;;;;;12.38;100.00;99774.94;5109532;28;20206;-67
2022/05/05 02:15:36;;;;;;;2.77;2.57;;;;;;;12.39;100.00;99778.38;5109929;28;20222;-68
2022/05/05 02:18:11;;;;;;;3.13;2.30;;;;;;;12.39;100.00;99775.78;5107824;28;20206;-69
2022/05/05 02:20:38;;;;;;;2.83;2.67;;;;;;;12.38;100.00;99780.09;5108333;28;20293;-68
2022/05/05 02:23:05;;;;;;;3.10;2.90;;;;;;;12.28;100.00;99767.59;5109169;28;20229;-68
2022/05/05 02:25:33;;;;;;;2.53;2.43;;;;;;;12.39;100.00;99786.91;5110081;28;20198;-68
2022/05/05 02:28:00;;;;;;;2.50;2.40;;;;;;;12.38;100.00;99790.38;5107286;28;20213;-68
2022/05/05 02:30:29;;;;;;;2.40;2.30;;;;;;;12.37;100.00;99786.16;5106620;28;20611;-68
2022/05/05 02:32:56;;;;;;;3.27;3.07;;;;;;;12.32;100.00;99775.16;5106817;28;20273;-68
2022/05/05 02:35:24;;;;;;;2.10;2.00;;;;;;;12.38;100.00;99789.53;5109113;28;20298;-68
2022/05/05 02:40:35;;;;;;;2.67;2.57;;;;;;;12.33;100.00;99802.53;5109016;28;20248;-68
2022/05/05 02:43:02;;;;;;;3.90;2.57;;;;;;;12.22;100.00;99788.31;5107474;28;20337;-68
2022/05/05 02:45:31;;;;;;;3.17;3.07;;;;;;;12.32;100.00;99813.72;5107089;28;20195;-68
2022/05/05 02:47:59;;;;;;;2.70;2.60;;;;;;;12.29;100.00;99803.53;5105509;28;20285;-68
2022/05/05 02:50:26;;;;;;;2.77;2.67;;;;;;;12.31;100.00;99806.06;5105396;28;20570;-68
2022/05/05 02:52:53;;;;;;;2.97;2.67;;;;;;;12.26;100.00;99811.31;5109363;28;20293;-68
2022/05/05 02:55:20;;;;;;;6.17;2.70;;;;;;;12.17;100.00;99811.63;5114181;27;20195;-68
2022/05/05 02:57:48;;;;;;;2.80;2.70;;;;;;;12.15;100.00;99818.50;5112398;28;20205;-68
2022/05/05 03:00:16;;;;;;;2.80;2.70;;;;;;;12.08;100.00;99822.16;5114640;27;20199;-67
2022/05/05 03:02:45;;;;;;;2.73;2.63;;;;;;;12.04;100.00;99816.28;5113081;28;20663;-68
2022/05/05 03:05:14;;;;;;;2.53;2.40;;;;;;;12.00;100.00;99827.53;5116233;28;20289;-68
2022/05/05 03:07:42;;;;;;;2.70;2.60;;;;;;;11.94;100.00;99829.44;5117331;27;20662;-68
2022/05/05 03:10:10;;;;;;;4.93;2.60;;;;;;;11.89;100.00;99837.25;5115880;28;20191;-67
2022/05/05 03:12:37;;;;;;;2.50;2.30;;;;;;;11.88;100.00;99834.75;5116542;28;20247;-67
2022/05/05 03:15:04;;;;;;;2.73;2.63;;;;;;;11.85;100.00;99830.53;5115583;28;20285;-69
2022/05/05 03:17:33;;;;;;;2.60;2.50;;;;;;;11.88;100.00;99845.03;5115244;28;20294;-68
2022/05/05 03:20:01;;;;;;;2.40;2.30;;;;;;;11.88;100.00;99840.72;5114474;28;20194;-68
2022/05/05 03:22:28;;;;;;;2.60;2.50;;;;;;;11.86;100.00;99841.63;5115359;28;20294;-68
2022/05/05 03:24:55;;;;;;;2.80;2.60;;;;;;;11.85;100.00;99842.53;5116774;28;20739;-68
2022/05/05 03:27:22;;;;;;;2.50;2.40;;;;;;;11.81;100.00;99848.63;5116728;27;20202;-68
2022/05/05 03:29:49;;;;;;;3.37;3.23;;;;;;;11.75;100.00;99844.53;5116355;28;20703;-68
2022/05/05 03:32:16;;;;;;;2.87;2.43;;;;;;;11.68;100.00;99847.25;5116040;27;20201;-68
2022/05/05 03:34:43;;;;;;;2.83;2.73;;;;;;;11.66;100.00;99846.47;5110701;28;20293;-67
2022/05/05 03:37:11;;;;;;;2.50;2.40;;;;;;;11.67;100.00;99845.56;5115079;28;20222;-68
2022/05/05 03:39:38;;;;;;;2.83;2.73;;;;;;;11.63;100.00;99849.13;5112777;28;20290;-68
2022/05/05 03:42:06;;;;;;;5.80;3.17;;;;;;;11.59;100.00;99853.50;5112629;27;20237;-68
2022/05/05 03:44:33;;;;;;;2.70;2.60;;;;;;;11.56;100.00;99857.00;5113560;28;20201;-68
2022/05/05 03:47:00;;;;;;;2.90;2.70;;;;;;;11.61;100.00;99854.28;5114887;28;20490;-68
2022/05/05 03:49:27;;;;;;;3.20;3.10;;;;;;;11.67;100.00;99859.25;5114220;28;20194;-68
2022/05/05 03:51:55;;;;;;;3.13;2.93;;;;;;;11.80;100.00;99863.22;5114307;28;20187;-68
2022/05/05 03:54:24;;;;;;;2.90;2.80;;;;;;;11.85;100.00;99865.66;5113458;27;20651;-68
2022/05/05 03:56:51;;;;;;;3.00;2.83;;;;;;;11.95;100.00;99872.22;5116019;28;20742;-68
2022/05/05 03:59:18;;;;;;;3.00;2.90;;;;;;;12.05;100.00;99868.50;5114841;28;20675;-67
2022/05/05 04:01:45;;;;;;;4.03;3.03;;;;;;;12.11;100.00;99873.47;5115983;28;20570;-68
2022/05/05 04:04:12;;;;;;;4.50;2.93;;;;;;;12.17;100.00;99873.28;5112421;28;20570;-69
2022/05/05 04:06:39;;;;;;;2.43;2.33;;;;;;;12.26;100.00;99880.72;5113211;28;20194;-67
2022/05/05 04:09:06;;;;;;;2.77;2.67;;;;;;;12.28;100.00;99875.56;5112599;28;20236;-68
2022/05/05 04:11:35;;;;;;;2.90;2.70;;;;;;;12.32;100.00;99877.97;5112721;28;20199;-68
2022/05/05 04:14:03;;;;;;;2.83;2.73;;;;;;;12.36;100.00;99889.00;5112319;28;20195;-68
2022/05/05 04:16:31;;;;;;;2.97;2.70;;;;;;;12.46;100.00;99891.28;5112678;27;20203;-68
2022/05/05 04:18:58;;;;;;;3.23;2.73;;;;;;;12.55;100.00;99893.56;5112596;28;20908;-67
2022/05/05 04:21:25;;;;;;;2.60;2.40;;;;;;;12.60;100.00;99886.53;5111464;28;20217;-68
2022/05/05 04:23:52;;;;;;;2.93;2.83;;;;;;;12.73;100.00;99891.31;5111733;28;20646;-67
2022/05/05 04:26:20;;;;;;;3.03;2.57;;;;;;;12.84;100.00;99887.50;5111350;28;20217;-67
2022/05/05 04:28:51;;;;;;;2.93;2.83;;;;;;;12.95;100.00;99874.31;5111361;28;20199;-68
2022/05/05 04:31:19;;;;;;;2.97;2.77;;;;;;;13.33;100.00;99893.69;5106295;27;20294;-68
2022/05/05 04:33:46;;;;;;;3.33;3.17;;;;;;;13.64;100.00;99908.03;5111343;28;20721;-67
2022/05/05 04:36:14;;;;;;;3.20;3.00;;;;;;;13.96;100.00;99903.47;5110715;28;20278;-69
2022/05/05 04:38:42;;;;;;;3.83;3.63;;;;;;;14.25;100.00;99900.69;5110870;28;20209;-68
2022/05/05 04:41:09;;;;;;;3.13;3.00;;;;;;;14.55;100.00;99894.41;5110997;28;20210;-68
2022/05/05 04:43:36;;;;;;;2.77;2.67;;;;;;;14.80;100.00;99896.06;5111874;28;20306;-68
2022/05/05 04:46:04;;;;;;;2.80;2.70;;;;;;;15.05;98.88;99894.16;5111226;28;20211;-68
2022/05/05 04:48:31;;;;;;;3.00;2.90;;;;;;;15.31;98.44;99890.50;5110577;28;20242;-68
2022/05/05 04:50:58;;;;;;;2.50;2.40;;;;;;;15.57;97.84;99887.72;5111667;28;20191;-68
2022/05/05 04:53:25;;;;;;;3.20;3.00;;;;;;;15.83;96.11;99904.69;5107752;28;20726;-68
2022/05/05 04:55:52;;;;;;;3.57;3.37;;;;;;;16.09;95.33;99906.97;5107356;28;20294;-68
2022/05/05 04:58:19;;;;;;;3.00;2.80;;;;;;;16.33;93.70;99913.59;5106951;28;20760;-69
2022/05/05 05:00:46;;;;;;;2.90;2.80;;;;;;;16.49;91.74;99906.81;5110148;27;20207;-68
2022/05/05 05:05:55;;;;;;;3.07;2.97;;;;;;;16.87;88.86;99912.81;5109791;28;20201;-69
2022/05/05 05:08:22;;;;;;;2.80;2.70;;;;;;;16.96;88.89;99891.69;5106810;28;20217;-69
2022/05/05 05:10:49;;;;;;;2.67;2.57;;;;;;;17.31;86.22;99910.66;5112287;28;20571;-68
2022/05/05 05:13:16;;;;;;;3.60;3.30;;;;;;;17.53;84.67;99913.88;5111045;28;20281;-68
2022/05/05 05:15:43;;;;;;;3.23;3.03;;;;;;;17.74;84.60;99912.78;5111160;28;20202;-68
2022/05/05 05:18:10;;;;;;;3.00;2.90;;;;;;;17.96;82.02;99922.09;5110468;28;20194;-68
2022/05/05 05:20:38;;;;;;;2.50;2.30;;;;;;;18.12;82.91;99913.41;5111455;28;20198;-68
2022/05/05 05:23:05;;;;;;;3.07;2.97;;;;;;;18.22;81.28;99898.19;5106440;27;20222;-68
2022/05/05 05:25:32;;;;;;;2.70;2.60;;;;;;;18.52;80.51;99912.13;5111044;28;20630;-68
2022/05/05 05:27:59;;;;;;;3.53;3.23;;;;;;;18.74;81.25;99923.00;5110462;28;20205;-68
2022/05/05 05:30:26;;;;;;;3.03;2.93;;;;;;;19.03;81.05;99928.38;5108958;28;20285;-68
2022/05/05 05:32:53;;;;;;;2.97;2.77;;;;;;;19.18;77.83;99930.94;5111445;28;21564;-68
2022/05/05 05:35:20;;;;;;;2.70;2.60;;;;;;;19.31;77.57;99933.66;5107944;28;20738;-68
2022/05/05 05:37:51;;;;;;;3.50;3.20;;;;;;;19.49;78.37;99932.63;5108640;28;20286;-68
2022/05/05 05:40:17;;;;;;;2.60;2.50;;;;;;;19.64;75.94;99939.56;5109879;28;20285;-68
2022/05/05 05:42:44;;;;;;;3.20;3.00;;;;;;;19.73;75.44;99936.41;5110769;28;20222;-69
2022/05/05 05:45:11;;;;;;;3.43;3.13;;;;;;;19.83;77.84;99942.75;5109101;28;20211;-68
2022/05/05 05:47:38;;;;;;;3.30;3.20;;;;;;;19.95;77.65;99945.53;5107952;28;20212;-68
2022/05/05 05:50:06;;;;;;;4.00;2.97;;;;;;;20.02;76.04;99958.09;5109074;28;20222;-68
2022/05/05 05:52:33;;;;;;;3.20;3.10;;;;;;;20.14;75.21;99962.56;5111272;28;20667;-68
2022/05/05 05:55:02;;;;;;;3.17;3.03;;;;;;;20.23;74.97;99935.13;5110694;28;20609;-70
2022/05/05 05:57:29;;;;;;;3.00;2.90;;;;;;;20.52;75.52;99955.03;5109890;28;20293;-71
2022/05/05 05:59:56;;;;;;;3.57;3.27;;;;;;;20.66;73.55;99960.22;5102447;28;20217;-71
2022/05/05 06:05:08;;;;;;;2.93;2.83;;;;;;;20.88;73.28;99962.31;5106299;28;20721;-71
2022/05/05 06:07:35;;;;;;;3.57;3.40;;;;;;;21.06;73.39;99962.91;5105784;28;20297;-71
2022/05/05 06:10:03;;;;;;;3.23;3.13;;;;;;;21.26;73.00;99954.69;5105864;28;20208;-69
2022/05/05 06:12:31;;;;;;;3.63;3.53;;;;;;;21.43;72.01;99957.00;5107896;28;20291;-70
2022/05/05 06:14:58;;;;;;;3.07;2.97;;;;;;;21.61;69.38;99966.22;5108720;28;20697;-68
2022/05/05 06:17:24;;;;;;;3.70;3.50;;;;;;;21.76;69.21;99954.75;5108315;28;20693;-68
2022/05/05 06:19:51;;;;;;;3.87;3.60;;;;;;;21.90;70.34;99952.09;5109943;28;20201;-69
2022/05/05 06:22:18;;;;;;;3.67;3.00;;;;;;;21.96;72.51;99943.84;5107839;28;20202;-70
2022/05/05 06:24:45;;;;;;;4.10;3.90;;;;;;;22.16;69.69;99958.16;5106925;28;20652;-68
2022/05/05 06:27:14;;;;;;;2.90;2.80;;;;;;;22.37;66.60;99953.19;5105944;28;20288;-67
2022/05/05 06:29:40;;;;;;;3.10;3.00;;;;;;;22.34;65.83;99956.84;5106244;28;20722;-67
2022/05/05 06:32:08;;;;;;;2.47;2.37;;;;;;;22.40;65.99;99960.81;5107862;28;20657;-68
2022/05/05 06:34:35;;;;;;;2.40;2.30;;;;;;;22.49;66.14;99954.94;5106297;28;20283;-67
2022/05/05 06:37:02;;;;;;;2.70;2.50;;;;;;;22.55;65.70;99953.69;5105434;27;20229;-66
2022/05/05 06:39:29;;;;;;;2.07;1.97;;;;;;;22.77;63.97;99961.72;5109978;28;20275;-67
2022/05/05 06:41:56;;;;;;;2.77;2.50;;;;;;;22.86;64.04;99964.50;5112115;28;20317;-67
2022/05/05 06:44:25;;;;;;;2.87;2.77;;;;;;;22.88;63.24;99957.38;5112907;28;20214;-67
2022/05/05 06:46:51;;;;;;;2.60;2.50;;;;;;;22.73;62.19;99962.88;5108325;28;20297;-67
2022/05/05 06:49:18;;;;;;;2.37;2.27;;;;;;;22.75;62.79;99961.81;5110519;28;20213;-68
2022/05/05 06:51:45;;;;;;;2.37;2.27;;;;;;;22.94;64.92;99964.75;5110410;28;20195;-67
2022/05/05 06:54:12;;;;;;;2.53;2.43;;;;;;;23.09;63.51;99956.78;5110149;28;20195;-69
2022/05/05 06:56:39;;;;;;;2.40;2.30;;;;;;;23.15;62.27;99957.16;5109433;28;20202;-70
2022/05/05 06:59:06;;;;;;;2.50;2.40;;;;;;;23.33;61.69;99950.56;5107795;28;20202;-69
2022/05/05 07:07:03;;;;;;;2.67;2.57;;;;;;;23.46;63.81;99953.97;5111032;28;20213;-70
2022/05/05 07:12:15;;;;;;;2.17;2.07;;;;;;;23.91;59.43;99957.53;5109837;28;20224;-70
2022/05/05 07:14:43;;;;;;;1.83;1.80;;;;;;;23.91;60.38;99954.91;5110559;28;20281;-69
2022/05/05 07:17:12;;;;;;;2.33;1.90;;;;;;;24.10;58.73;99958.75;5110105;28;20234;-70
2022/05/05 07:19:40;;;;;;;2.03;1.97;;;;;;;24.11;59.08;99957.78;5110350;28;20209;-69
2022/05/05 07:22:08;;;;;;;2.53;2.43;;;;;;;24.08;59.54;99955.41;5107057;28;20226;-70
2022/05/05 07:24:34;;;;;;;2.27;2.17;;;;;;;24.27;59.39;99955.66;5109941;28;20666;-70
2022/05/05 07:27:03;;;;;;;2.30;2.20;;;;;;;24.27;61.07;99955.66;5109402;28;20625;-70
2022/05/05 07:29:31;;;;;;;2.10;2.00;;;;;;;24.56;60.51;99954.22;5108418;28;20198;-70
2022/05/05 07:31:57;;;;;;;2.30;2.20;;;;;;;24.85;58.54;99952.78;5106725;28;20213;-70
2022/05/05 07:34:26;;;;;;;2.27;2.17;;;;;;;25.04;59.29;99958.19;5110705;28;20244;-71
2022/05/05 07:36:53;;;;;;;2.30;2.20;;;;;;;25.22;60.09;99970.78;5109558;28;20290;-70
2022/05/05 07:39:20;;;;;;;1.93;1.83;;;;;;;25.36;58.99;99962.63;5112176;28;20290;-71
2022/05/05 07:41:47;;;;;;;1.70;1.70;;;;;;;25.48;58.90;99970.31;5114533;28;20310;-70
2022/05/05 07:44:15;;;;;;;1.97;1.97;;;;;;;25.58;54.86;99963.38;5114492;28;20306;-70
2022/05/05 07:46:42;;;;;;;1.80;1.70;;;;;;;25.64;56.41;99964.66;5115712;27;20294;-71
2022/05/05 07:49:09;;;;;;;2.13;2.03;;;;;;;25.48;57.47;99956.34;5113072;28;20199;-70
2022/05/05 07:51:38;;;;;;;2.50;1.70;;;;;;;25.43;58.04;99955.88;5113337;28;20252;-70
2022/05/05 07:56:51;;;;;;;1.40;1.40;;;;;;;25.64;54.64;99967.28;5113541;28;20202;-71
2022/05/05 07:59:19;;;;;;;1.23;1.23;;;;;;;25.78;54.01;99974.03;5114266;28;20315;-70
2022/05/05 08:01:46;;;;;;;1.67;1.33;;;;;;;25.72;53.38;99970.09;5113934;28;20213;-70
2022/05/05 08:04:13;;;;;;;1.40;1.40;;;;;;;25.77;53.14;99957.41;5113231;28;20214;-70
2022/05/05 08:06:44;;;;;;;4.63;4.27;;;;;;;25.96;53.18;99962.78;5113275;28;20282;-69
2022/05/05 08:09:11;;;;;;;1.50;1.43;;;;;;;25.96;55.60;99956.69;5116049;27;20194;-69
2022/05/05 08:11:40;;;;;;;1.40;1.30;;;;;;;26.04;55.03;99960.31;5113764;28;20791;-69
2022/05/05 08:14:08;;;;;;;1.30;1.30;;;;;;;26.03;51.66;99968.34;5112918;28;20278;-70
2022/05/05 08:16:35;;;;;;;1.83;1.73;;;;;;;25.87;56.47;99962.72;5113884;28;20662;-69
2022/05/05 08:19:02;;;;;;;1.10;1.10;;;;;;;25.84;57.22;99963.84;5113598;28;20217;-70
2022/05/05 08:21:29;;;;;;;1.33;1.33;;;;;;;25.89;53.63;99961.63;5113827;28;20347;-70
2022/05/05 08:29:23;;;;;;;1.33;1.23;;;;;;;26.10;53.01;99970.34;5108689;28;20256;-70
2022/05/05 08:31:50;;;;;;;1.50;1.40;;;;;;;26.20;53.07;99974.84;5114900;27;20230;-70
2022/05/05 08:34:17;;;;;;;1.27;1.27;;;;;;;25.88;52.58;99965.22;5114022;28;20641;-70
2022/05/05 08:36:43;;;;;;;1.47;1.40;;;;;;;25.87;57.04;99962.72;5122237;27;20286;-70
2022/05/05 08:39:12;;;;;;;1.30;1.30;;;;;;;25.82;55.19;99960.47;5113897;28;20207;-70
2022/05/05 08:41:40;;;;;;;1.30;1.30;;;;;;;25.83;56.06;99959.53;5113985;28;20306;-70
2022/05/05 08:44:09;;;;;;;1.33;1.33;;;;;;;25.76;57.87;99950.50;5114022;28;20575;-70
2022/05/05 08:46:36;;;;;;;1.10;1.10;;;;;;;25.81;54.00;99953.59;5113969;28;20285;-70
2022/05/05 08:49:06;;;;;;;1.20;1.20;;;;;;;25.99;55.38;99952.00;5115526;27;20277;-70
2022/05/05 08:51:39;;;;;;;1.00;1.00;;;;;;;26.04;52.56;99955.06;5113145;28;20194;-70
2022/05/05 08:54:08;;;;;;;1.30;1.30;;;;;;;25.98;55.84;99952.97;5113973;28;20206;-70
2022/05/05 08:56:36;;;;;;;1.40;1.30;;;;;;;26.23;56.83;99953.53;5113748;27;20194;-70
2022/05/05 08:59:04;;;;;;;1.57;1.47;;;;;;;26.19;54.07;99954.75;5113898;28;20195;-70
2022/05/05 09:01:38;;;;;;;3.07;2.57;;;;;;;26.29;55.02;99953.00;5115585;27;21854;-69
2022/05/05 09:04:05;;;;;;;1.73;1.63;;;;;;;26.39;55.02;99951.25;5111857;28;20276;-68
2022/05/05 09:06:43;;;;;;;1.60;1.50;;;;;;;26.44;55.16;99954.31;5107145;28;20203;-68
2022/05/05 09:09:30;;;;;;;1.33;1.33;;;;;;;26.25;56.70;99922.69;5112041;28;20213;-68
2022/05/05 09:12:15;;;;;;;1.37;1.27;;;;;;;26.49;52.64;99952.97;5112611;28;20202;-68
2022/05/05 09:14:47;;;;;;;2.60;1.20;;;;;;;26.51;53.20;99948.38;5110331;28;20643;-68
2022/05/05 09:17:16;;;;;;;1.50;1.50;;;;;;;26.50;54.53;99945.88;5113052;28;20208;-68
2022/05/05 09:19:45;;;;;;;1.40;1.40;;;;;;;26.59;53.20;99942.47;5113144;28;20749;-68
2022/05/05 09:22:13;;;;;;;1.40;1.40;;;;;;;26.42;52.18;99948.34;5113140;28;20293;-69
2022/05/05 09:24:44;;;;;;;1.83;1.73;;;;;;;26.44;54.40;99942.00;5113013;28;20686;-68
2022/05/05 09:27:21;;;;;;;1.40;1.40;;;;;;;26.64;52.54;99945.50;5112385;28;20732;-69
2022/05/05 09:30:15;;;;;;;1.33;1.33;;;;;;;26.89;49.35;99947.66;5112453;28;20293;-68
2022/05/05 09:32:43;;;;;;;1.33;1.33;;;;;;;27.02;48.16;99950.03;5108398;28;20293;-68
2022/05/05 09:35:12;;;;;;;1.50;1.40;;;;;;;26.72;48.92;99948.28;5111078;28;20640;-70
2022/05/05 09:37:43;;;;;;;2.50;1.40;;;;;;;26.64;46.80;99942.88;5112481;28;20205;-68
2022/05/05 09:40:13;;;;;;;1.20;1.20;;;;;;;26.59;49.01;99940.63;5113026;28;20217;-68
2022/05/05 09:42:44;;;;;;;1.00;1.00;;;;;;;26.46;45.19;99934.78;5110223;28;20223;-68
2022/05/05 09:45:12;;;;;;;1.10;1.10;;;;;;;26.21;44.40;99939.69;5112372;28;20222;-68
2022/05/05 09:47:39;;;;;;;1.10;1.10;;;;;;;26.04;43.27;99944.56;5108538;27;20206;-67
2022/05/05 09:50:07;;;;;;;1.70;1.60;;;;;;;26.01;43.89;99942.19;5110843;28;20301;-67
2022/05/05 09:58:08;;;;;;;1.30;1.23;;;;;;;25.60;44.42;99934.34;5111586;28;20221;-68
2022/05/05 10:00:46;;;;;;;1.70;1.60;;;;;;;25.78;47.34;99932.81;5111860;28;20200;-68
2022/05/05 10:06:03;;;;;;;1.30;1.30;;;;;;;25.86;47.35;99933.00;5111340;28;20202;-67
2022/05/05 10:08:38;;;;;;;1.20;1.10;;;;;;;25.74;45.47;99915.66;5111467;28;20267;-68
2022/05/05 10:11:06;;;;;;;1.50;1.40;;;;;;;25.64;47.52;99925.28;5111064;28;20198;-67
2022/05/05 10:13:36;;;;;;;1.43;1.27;;;;;;;25.58;46.01;99923.16;5107772;28;20205;-69
2022/05/05 10:16:05;;;;;;;2.20;1.67;;;;;;;25.62;45.90;99916.69;5107745;28;20748;-66
2022/05/05 10:18:35;;;;;;;1.17;1.17;;;;;;;25.38;45.26;99918.69;5108690;28;20598;-67
2022/05/05 10:21:03;;;;;;;1.40;1.40;;;;;;;25.32;46.71;99911.34;5107770;28;20202;-66
2022/05/05 10:23:40;;;;;;;1.47;1.47;;;;;;;25.61;49.97;99909.78;5109301;28;20218;-67
2022/05/05 10:26:08;;;;;;;2.20;1.87;;;;;;;25.58;48.27;99887.25;5107050;28;20304;-67
2022/05/05 10:28:42;;;;;;;1.50;1.50;;;;;;;25.61;47.92;99901.91;5108502;28;20282;-67
2022/05/05 10:31:13;;;;;;;1.50;1.50;;;;;;;24.97;46.53;99903.75;5109899;28;20202;-67
2022/05/05 10:34:06;;;;;;;1.30;1.30;;;;;;;24.98;47.14;99905.38;5110729;27;20198;-67
2022/05/05 10:36:34;;;;;;;1.30;1.30;;;;;;;24.61;46.90;99909.31;5091472;28;20198;-66
2022/05/05 10:39:17;;;;;;;1.70;1.70;;;;;;;24.22;47.25;99903.66;5108144;28;20285;-66
2022/05/05 10:41:44;;;;;;;2.10;1.20;;;;;;;24.56;46.56;99905.25;5110122;28;20758;-67
2022/05/05 10:44:23;;;;;;;3.43;1.60;;;;;;;24.64;45.42;99903.81;5111332;28;20794;-66
2022/05/05 10:46:57;;;;;;;1.40;1.40;;;;;;;24.92;46.23;99898.03;5110444;28;20199;-67
2022/05/05 10:49:48;;;;;;;1.40;1.40;;;;;;;25.32;45.73;99901.69;5109012;28;20202;-67
2022/05/05 10:52:31;;;;;;;1.60;1.60;;;;;;;25.17;41.75;99904.75;5105341;28;20652;-66
2022/05/05 10:55:22;;;;;;;1.87;1.43;;;;;;;24.92;43.37;99909.34;5098332;28;20191;-67
2022/05/05 10:57:49;;;;;;;1.60;1.60;;;;;;;24.81;40.94;99917.25;5103654;28;20198;-66
2022/05/05 11:00:19;;;;;;;2.28;1.83;;;;;;;24.75;40.70;99915.09;5108191;28;20492;-65
2022/05/05 11:03:13;;;;;;;1.30;1.30;;;;;;;24.78;40.84;99914.03;5110891;28;20210;-64
2022/05/05 11:05:41;;;;;;;1.70;1.60;;;;;;;25.14;43.29;99915.50;5109013;28;20305;-65
2022/05/05 11:08:35;;;;;;;1.00;1.00;;;;;;;25.32;40.48;99913.97;5111117;28;20692;-65
2022/05/05 11:14:02;;;;;;;2.27;1.60;;;;;;;25.16;42.06;99908.31;5113479;28;20271;-65
2022/05/05 11:22:12;;;;;;;1.63;1.53;;;;;;;24.72;43.40;99917.97;5113853;28;20270;-64
2022/05/05 11:24:41;;;;;;;1.83;1.73;;;;;;;24.95;44.76;99916.13;5114685;28;20231;-66
2022/05/05 11:27:12;;;;;;;1.73;1.63;;;;;;;25.05;45.63;99907.41;5113809;28;20478;-68
2022/05/05 11:29:39;;;;;;;1.80;1.70;;;;;;;25.53;42.06;99920.06;5105985;28;20448;-67
2022/05/05 11:32:09;;;;;;;1.47;1.47;;;;;;;25.69;41.43;99912.56;5108983;28;20198;-66
2022/05/05 11:34:38;;;;;;;1.57;1.47;;;;;;;25.69;41.15;99917.03;5110818;27;20222;-66
2022/05/05 11:37:07;;;;;;;2.43;2.30;;;;;;;25.87;45.41;99908.41;5106644;28;20213;-68
2022/05/05 11:39:35;;;;;;;1.43;1.43;;;;;;;25.85;43.64;99912.94;5111771;28;20203;-71
2022/05/05 11:42:04;;;;;;;1.60;1.50;;;;;;;26.00;44.49;99910.81;5108199;27;20321;-71
2022/05/05 11:44:32;;;;;;;2.20;2.00;;;;;;;26.20;44.05;99917.00;5110896;27;20222;-69
2022/05/05 11:47:08;;;;;;;2.60;1.30;;;;;;;26.40;41.51;99926.59;5110677;28;20227;-70
2022/05/05 11:49:37;;;;;;;1.67;1.67;;;;;;;26.28;41.75;99919.78;5112209;28;20198;-68
2022/05/05 11:52:04;;;;;;;1.20;1.20;;;;;;;26.21;41.45;99910.75;5111639;28;20209;-68
2022/05/05 11:54:33;;;;;;;2.30;2.20;;;;;;;26.33;43.53;99913.19;5113276;28;20285;-69
2022/05/05 11:57:01;;;;;;;1.97;1.87;;;;;;;26.36;42.17;99909.47;5111968;28;20281;-69
2022/05/05 12:02:15;;;;;;;1.27;1.27;;;;;;;25.97;40.32;99914.53;5110827;28;20689;-68
2022/05/05 12:04:45;;;;;;;1.30;1.30;;;;;;;25.94;39.30;99916.59;5113051;28;20242;-68
2022/05/05 12:07:19;;;;;;;1.67;1.47;;;;;;;25.95;40.40;99908.56;5110189;28;20206;-68
2022/05/05 12:09:47;;;;;;;1.53;1.50;;;;;;;25.99;40.12;99903.88;5110034;28;20226;-68
2022/05/05 12:12:18;;;;;;;1.30;1.30;;;;;;;26.03;41.36;99902.66;5111150;28;20214;-68
2022/05/05 12:14:46;;;;;;;1.20;1.20;;;;;;;26.07;40.29;99902.25;5111831;28;20285;-68
2022/05/05 12:17:17;;;;;;;1.60;1.50;;;;;;;25.98;41.60;99897.78;5112270;28;20195;-68
2022/05/05 12:19:50;;;;;;;3.70;1.70;;;;;;;25.76;43.69;99903.22;5109240;28;20195;-70
2022/05/05 12:22:39;;;;;;;2.03;1.80;;;;;;;25.37;44.19;99898.66;5111620;28;20211;-68
2022/05/05 12:25:13;;;;;;;3.83;1.83;;;;;;;25.06;45.34;99877.59;5107872;28;20235;-68
2022/05/05 12:27:41;;;;;;;2.07;1.97;;;;;;;24.84;45.14;99900.47;5110627;28;20207;-69